createdAt,value
2017-07-26T00:02:19.653Z,9.50
2017-07-26T00:04:48.156Z,8.67
2017-07-26T00:07:17.021Z,10.37
2017-07-26T00:09:45.898Z,9.60
2017-07-26T00:12:16.326Z,9.77
2017-07-26T00:14:45.129Z,9.90
2017-07-26T00:17:14.184Z,9.80
2017-07-26T00:19:42.910Z,9.17
2017-07-26T00:22:11.516Z,9.93
2017-07-26T00:24:41.072Z,9.33
2017-07-26T00:27:09.984Z,8.60
2017-07-26T00:29:39.035Z,8.80
2017-07-26T00:32:08.381Z,9.17
2017-07-26T00:34:37.304Z,8.40
2017-07-26T00:37:06.488Z,8.60
2017-07-26T00:39:35.353Z,9.13
2017-07-26T00:42:03.727Z,9.07
2017-07-26T00:44:32.052Z,10.57
2017-07-26T00:47:00.716Z,10.53
2017-07-26T00:49:29.052Z,10.50
2017-07-26T00:51:57.368Z,9.37
2017-07-26T00:54:26.439Z,9.77
2017-07-26T00:56:54.809Z,8.80
2017-07-26T00:59:23.275Z,10.47
2017-07-26T01:01:53.134Z,10.20
2017-07-26T01:04:21.542Z,9.80
2017-07-26T01:06:51.997Z,9.53
2017-07-26T01:09:21.567Z,8.83
2017-07-26T01:11:50.026Z,10.40
2017-07-26T01:14:18.862Z,10.60
2017-07-26T01:16:47.894Z,9.70
2017-07-26T01:19:16.483Z,10.27
2017-07-26T01:21:45.230Z,10.67
2017-07-26T01:24:14.169Z,10.60
2017-07-26T01:26:42.884Z,11.00
2017-07-26T01:29:11.447Z,10.60
2017-07-26T01:31:40.983Z,10.17
2017-07-26T01:34:11.646Z,11.53
2017-07-26T01:36:42.316Z,10.80
2017-07-26T01:39:12.687Z,11.23
2017-07-26T01:41:42.637Z,10.93
2017-07-26T01:44:11.447Z,11.97
2017-07-26T01:46:40.982Z,10.30
2017-07-26T01:49:11.047Z,10.93
2017-07-26T01:51:40.505Z,11.40
2017-07-26T01:54:09.586Z,11.43
2017-07-26T01:56:38.522Z,11.60
2017-07-26T01:59:07.499Z,11.43
2017-07-26T02:01:35.932Z,10.03
2017-07-26T02:04:04.370Z,9.07
2017-07-26T02:06:32.942Z,11.93
2017-07-26T02:09:01.291Z,11.57
2017-07-26T02:11:29.633Z,10.97
2017-07-26T02:13:59.149Z,11.00
2017-07-26T02:16:29.325Z,10.90
2017-07-26T02:18:59.444Z,9.47
2017-07-26T02:21:27.849Z,10.07
2017-07-26T02:23:56.168Z,11.03
2017-07-26T02:26:24.477Z,10.80
2017-07-26T02:28:54.766Z,11.70
2017-07-26T02:31:23.214Z,10.40
2017-07-26T02:33:51.629Z,10.43
2017-07-26T02:36:20.887Z,9.43
2017-07-26T02:38:49.274Z,10.80
2017-07-26T02:41:17.613Z,10.77
2017-07-26T02:43:46.223Z,9.97
2017-07-26T02:46:14.871Z,11.27
2017-07-26T02:48:43.521Z,13.10
2017-07-26T02:51:13.855Z,12.10
2017-07-26T02:53:43.152Z,11.80
2017-07-26T02:56:12.011Z,12.47
2017-07-26T02:58:41.344Z,13.00
2017-07-26T03:03:48.568Z,13.10
2017-07-26T03:06:17.910Z,12.23
2017-07-26T03:08:46.373Z,14.00
2017-07-26T03:11:15.109Z,14.27
2017-07-26T03:13:43.636Z,15.27
2017-07-26T03:16:12.344Z,14.93
2017-07-26T03:18:41.656Z,14.50
2017-07-26T03:21:10.564Z,12.83
2017-07-26T03:23:39.566Z,12.80
2017-07-26T03:26:09.016Z,13.63
2017-07-26T03:28:37.491Z,13.60
2017-07-26T03:31:05.862Z,14.10
2017-07-26T03:33:34.432Z,12.67
2017-07-26T03:36:02.772Z,14.17
2017-07-26T03:38:31.124Z,14.30
2017-07-26T03:40:59.921Z,13.63
2017-07-26T03:43:28.248Z,12.97
2017-07-26T03:45:56.573Z,13.47
2017-07-26T03:48:25.331Z,13.83
2017-07-26T03:50:53.710Z,14.60
2017-07-26T03:53:22.151Z,15.77
2017-07-26T03:55:50.888Z,14.27
2017-07-26T03:58:20.280Z,15.20
2017-07-26T04:00:48.841Z,15.33
2017-07-26T04:03:17.598Z,14.90
2017-07-26T04:05:46.639Z,14.40
2017-07-26T04:08:16.824Z,14.20
2017-07-26T04:10:45.645Z,15.50
2017-07-26T04:13:14.338Z,14.83
2017-07-26T04:15:43.168Z,13.33
2017-07-26T04:18:12.588Z,14.47
2017-07-26T04:20:41.514Z,14.50
2017-07-26T04:23:11.363Z,17.60
2017-07-26T04:25:40.646Z,14.60
2017-07-26T04:28:09.522Z,15.80
2017-07-26T04:30:37.978Z,14.00
2017-07-26T04:33:07.486Z,15.30
2017-07-26T04:35:35.873Z,14.97
2017-07-26T04:38:04.226Z,16.23
2017-07-26T04:40:32.941Z,14.07
2017-07-26T04:43:01.275Z,13.80
2017-07-26T04:45:29.639Z,14.33
2017-07-26T04:47:58.309Z,15.07
2017-07-26T04:50:27.591Z,14.83
2017-07-26T04:52:56.834Z,15.50
2017-07-26T04:55:26.384Z,15.97
2017-07-26T04:57:55.202Z,12.97
2017-07-26T05:00:23.513Z,14.87
2017-07-26T05:02:52.274Z,13.40
2017-07-26T05:05:20.988Z,15.87
2017-07-26T05:07:49.548Z,14.80
2017-07-26T05:10:19.233Z,14.97
2017-07-26T05:12:47.748Z,14.67
2017-07-26T05:15:16.293Z,14.00
2017-07-26T05:17:45.137Z,12.60
2017-07-26T05:20:14.046Z,14.93
2017-07-26T05:22:43.233Z,15.63
2017-07-26T05:25:12.648Z,15.00
2017-07-26T05:27:41.436Z,13.93
2017-07-26T05:30:10.781Z,14.20
2017-07-26T05:32:42.269Z,14.63
2017-07-26T05:35:11.165Z,15.77
2017-07-26T05:37:41.102Z,14.83
2017-07-26T05:40:10.685Z,15.37
2017-07-26T05:42:39.384Z,14.17
2017-07-26T05:45:08.775Z,15.10
2017-07-26T05:47:39.971Z,13.17
2017-07-26T05:50:09.707Z,12.67
2017-07-26T05:52:38.765Z,13.20
2017-07-26T05:55:07.946Z,12.80
2017-07-26T05:57:36.479Z,12.20
2017-07-26T06:00:05.724Z,11.20
2017-07-26T06:02:34.427Z,13.07
2017-07-26T06:05:02.742Z,12.33
2017-07-26T06:07:31.112Z,13.93
2017-07-26T06:10:00.332Z,12.43
2017-07-26T06:12:28.658Z,12.73
2017-07-26T06:14:57.016Z,12.90
2017-07-26T06:17:25.752Z,12.20
2017-07-26T06:19:54.071Z,12.57
2017-07-26T06:22:22.479Z,13.80
2017-07-26T06:24:51.164Z,10.87
2017-07-26T06:27:20.461Z,12.17
2017-07-26T06:29:49.733Z,14.57
2017-07-26T06:32:18.491Z,14.30
2017-07-26T06:34:47.721Z,16.40
2017-07-26T06:37:16.305Z,18.10
2017-07-26T06:39:45.164Z,15.43
2017-07-26T06:42:13.793Z,15.63
2017-07-26T06:44:42.670Z,12.87
2017-07-26T06:47:11.975Z,15.20
2017-07-26T06:49:41.197Z,13.30
2017-07-26T06:52:10.713Z,11.60
2017-07-26T06:54:40.534Z,11.07
2017-07-26T06:57:09.745Z,10.03
2017-07-26T06:59:39.384Z,10.30
2017-07-26T07:02:08.416Z,10.17
2017-07-26T07:04:36.932Z,9.20
2017-07-26T07:07:06.062Z,8.20
2017-07-26T07:09:35.564Z,9.30
2017-07-26T07:12:03.933Z,10.10
2017-07-26T07:14:32.415Z,10.07
2017-07-26T07:17:00.974Z,8.00
2017-07-26T07:19:29.351Z,9.63
2017-07-26T07:21:59.378Z,8.90
2017-07-26T07:24:28.514Z,8.77
2017-07-26T07:26:56.864Z,9.50
2017-07-26T07:29:25.196Z,9.40
2017-07-26T07:31:54.631Z,8.40
2017-07-26T07:34:22.981Z,9.30
2017-07-26T07:36:52.161Z,9.23
2017-07-26T07:39:21.629Z,8.63
2017-07-26T07:41:50.432Z,8.30
2017-07-26T07:44:19.837Z,9.10
2017-07-26T07:46:48.885Z,9.93
2017-07-26T07:49:17.550Z,9.10
2017-07-26T07:51:46.363Z,9.63
2017-07-26T07:54:16.077Z,10.60
2017-07-26T07:56:45.037Z,9.27
2017-07-26T07:59:13.824Z,9.50
2017-07-26T08:01:42.945Z,7.93
2017-07-26T08:04:13.519Z,8.33
2017-07-26T08:06:43.479Z,8.60
2017-07-26T08:09:12.415Z,9.30
2017-07-26T08:11:41.061Z,9.10
2017-07-26T08:14:12.018Z,8.90
2017-07-26T08:16:41.006Z,7.50
2017-07-26T08:19:09.579Z,8.50
2017-07-26T08:21:38.924Z,8.07
2017-07-26T08:24:08.506Z,8.33
2017-07-26T08:26:37.124Z,8.30
2017-07-26T08:29:08.121Z,7.70
2017-07-26T08:31:37.279Z,6.30
2017-07-26T08:34:05.698Z,7.70
2017-07-26T08:36:35.671Z,8.00
2017-07-26T08:39:04.046Z,7.97
2017-07-26T08:41:33.112Z,6.37
2017-07-26T08:44:01.849Z,8.40
2017-07-26T08:46:30.167Z,8.83
2017-07-26T08:49:07.443Z,7.90
2017-07-26T08:51:35.812Z,8.10
2017-07-26T08:54:04.192Z,7.80
2017-07-26T08:56:33.180Z,7.90
2017-07-26T08:59:01.771Z,6.80
2017-07-26T09:01:30.101Z,8.40
2017-07-26T09:03:58.811Z,8.23
2017-07-26T09:06:27.157Z,6.90
2017-07-26T09:08:55.492Z,7.33
2017-07-26T09:11:24.277Z,7.20
2017-07-26T09:13:52.678Z,6.60
2017-07-26T09:16:21.020Z,7.43
2017-07-26T09:18:49.621Z,6.77
2017-07-26T09:21:17.982Z,5.50
2017-07-26T09:23:46.505Z,7.07
2017-07-26T09:26:15.929Z,6.97
2017-07-26T09:28:44.510Z,7.30
2017-07-26T09:31:13.596Z,5.80
2017-07-26T09:33:42.758Z,6.53
2017-07-26T09:36:11.345Z,6.87
2017-07-26T09:38:39.930Z,6.53
2017-07-26T09:41:09.340Z,6.80
2017-07-26T09:43:39.017Z,7.10
2017-07-26T09:46:08.707Z,7.00
2017-07-26T09:48:37.777Z,7.10
2017-07-26T09:51:06.456Z,7.57
2017-07-26T09:53:34.858Z,7.10
2017-07-26T09:56:03.619Z,7.70
2017-07-26T09:58:31.975Z,9.40
2017-07-26T10:01:01.326Z,8.20
2017-07-26T10:03:30.931Z,7.60
2017-07-26T10:05:59.298Z,8.37
2017-07-26T10:08:28.646Z,8.13
2017-07-26T10:10:57.562Z,7.30
2017-07-26T10:13:26.145Z,9.27
2017-07-26T10:15:54.675Z,9.47
2017-07-26T10:18:25.196Z,9.93
2017-07-26T10:20:53.609Z,8.37
2017-07-26T10:23:21.928Z,8.93
2017-07-26T10:25:50.629Z,8.67
2017-07-26T10:28:19.144Z,8.87
2017-07-26T10:30:47.792Z,9.50
2017-07-26T10:33:16.846Z,7.10
2017-07-26T10:35:45.286Z,7.80
2017-07-26T10:38:13.793Z,8.23
2017-07-26T10:40:42.377Z,7.83
2017-07-26T10:43:11.388Z,6.90
2017-07-26T10:45:40.150Z,7.00
2017-07-26T10:48:08.764Z,7.70
2017-07-26T10:50:38.118Z,5.93
2017-07-26T10:53:06.677Z,7.33
2017-07-26T10:55:35.912Z,6.70
2017-07-26T10:58:04.250Z,6.80
2017-07-26T11:00:32.996Z,6.03
2017-07-26T11:03:02.442Z,6.00
2017-07-26T11:05:31.125Z,5.97
2017-07-26T11:07:59.504Z,5.00
2017-07-26T11:10:28.297Z,5.50
2017-07-26T11:12:57.434Z,5.67
2017-07-26T11:15:25.772Z,6.03
2017-07-26T11:17:54.764Z,6.47
2017-07-26T11:20:23.160Z,5.07
2017-07-26T11:22:51.592Z,5.00
2017-07-26T11:25:20.261Z,6.00
2017-07-26T11:27:48.891Z,5.30
2017-07-26T11:30:17.425Z,4.80
2017-07-26T11:32:46.516Z,4.70
2017-07-26T11:35:16.668Z,5.03
2017-07-26T11:37:46.251Z,5.30
2017-07-26T11:40:15.026Z,5.63
2017-07-26T11:42:43.667Z,5.40
2017-07-26T11:45:13.787Z,6.07
2017-07-26T11:47:43.210Z,5.63
2017-07-26T11:50:12.720Z,4.27
2017-07-26T11:52:42.174Z,5.43
2017-07-26T11:55:12.810Z,4.97
2017-07-26T11:57:41.925Z,4.83
2017-07-26T12:00:11.085Z,5.67
2017-07-26T12:02:40.306Z,4.93
2017-07-26T12:05:08.947Z,5.13
2017-07-26T12:07:37.480Z,5.40
2017-07-26T12:10:06.406Z,4.60
2017-07-26T12:12:34.860Z,5.43
2017-07-26T12:15:03.177Z,5.17
2017-07-26T12:17:32.867Z,4.60
2017-07-26T12:20:01.273Z,4.10
2017-07-26T12:22:29.740Z,4.90
2017-07-26T12:24:58.498Z,3.73
2017-07-26T12:27:26.833Z,3.93
2017-07-26T12:29:55.573Z,4.23
2017-07-26T12:32:24.730Z,4.70
2017-07-26T12:34:53.284Z,4.60
2017-07-26T12:37:21.763Z,4.70
2017-07-26T12:39:50.482Z,5.07
2017-07-26T12:42:18.996Z,4.63
2017-07-26T12:44:47.746Z,5.20
2017-07-26T12:47:18.015Z,4.20
2017-07-26T12:49:47.455Z,3.83
2017-07-26T12:52:16.589Z,4.90
2017-07-26T12:54:45.339Z,4.70
2017-07-26T12:57:15.080Z,4.30
2017-07-26T12:59:44.009Z,4.37
2017-07-26T13:02:14.466Z,4.77
2017-07-26T13:04:42.941Z,4.60
2017-07-26T13:07:11.517Z,4.60
2017-07-26T13:09:40.214Z,4.60
2017-07-26T13:12:08.756Z,4.60
2017-07-26T13:14:37.575Z,4.00
2017-07-26T13:17:06.181Z,4.37
2017-07-26T13:19:34.517Z,4.40
2017-07-26T13:22:02.884Z,4.60
2017-07-26T13:24:34.584Z,5.40
2017-07-26T13:27:02.894Z,4.37
2017-07-26T13:29:31.239Z,5.20
2017-07-26T13:32:01.697Z,5.07
2017-07-26T13:34:30.002Z,4.80
2017-07-26T13:36:58.315Z,5.00
2017-07-26T13:39:27.580Z,4.33
2017-07-26T13:41:55.962Z,5.00
2017-07-26T13:44:24.332Z,4.83
2017-07-26T13:46:53.122Z,4.50
2017-07-26T13:49:21.718Z,4.80
2017-07-26T13:51:50.441Z,4.63
2017-07-26T13:54:19.687Z,4.97
2017-07-26T13:56:48.888Z,4.90
2017-07-26T13:59:17.569Z,5.17
2017-07-26T14:01:46.291Z,4.73
2017-07-26T14:04:15.809Z,5.83
2017-07-26T14:06:44.357Z,5.57
2017-07-26T14:09:13.771Z,4.70
2017-07-26T14:11:42.854Z,4.00
2017-07-26T14:14:11.351Z,5.00
2017-07-26T14:16:41.014Z,5.70
2017-07-26T14:19:10.360Z,4.90
2017-07-26T14:21:39.463Z,5.30
2017-07-26T14:24:09.983Z,4.60
2017-07-26T14:26:38.872Z,4.07
2017-07-26T14:29:07.381Z,5.77
2017-07-26T14:31:36.269Z,4.90
2017-07-26T14:34:04.681Z,5.40
2017-07-26T14:36:33.030Z,6.10
2017-07-26T14:39:02.280Z,4.70
2017-07-26T14:41:30.696Z,4.50
2017-07-26T14:43:59.045Z,4.53
2017-07-26T14:46:27.627Z,5.20
2017-07-26T14:48:55.958Z,4.43
2017-07-26T14:51:25.052Z,5.57
2017-07-26T14:53:54.467Z,5.00
2017-07-26T14:56:22.792Z,5.67
2017-07-26T14:58:51.094Z,5.50
2017-07-26T15:01:20.367Z,5.17
2017-07-26T15:03:48.740Z,5.90
2017-07-26T15:06:17.110Z,6.50
2017-07-26T15:08:45.938Z,5.33
2017-07-26T15:11:14.417Z,4.83
2017-07-26T15:13:43.631Z,8.33
2017-07-26T15:16:12.448Z,5.10
2017-07-26T15:18:40.891Z,5.40
2017-07-26T15:21:09.480Z,3.93
2017-07-26T15:23:39.705Z,4.87
2017-07-26T15:26:08.258Z,5.13
2017-07-26T15:28:37.658Z,7.30
2017-07-26T15:31:06.261Z,3.97
2017-07-26T15:33:34.593Z,5.60
2017-07-26T15:36:03.667Z,5.00
2017-07-26T15:38:32.832Z,4.87
2017-07-26T15:41:02.140Z,4.63
2017-07-26T15:43:31.229Z,4.43
2017-07-26T15:46:00.401Z,4.33
2017-07-26T15:48:29.511Z,4.40
2017-07-26T15:50:57.846Z,4.40
2017-07-26T15:53:27.368Z,4.43
2017-07-26T15:55:55.777Z,4.47
2017-07-26T15:58:25.902Z,4.03
2017-07-26T16:00:55.413Z,3.93
2017-07-26T16:03:23.819Z,4.77
2017-07-26T16:05:52.234Z,4.47
2017-07-26T16:08:23.138Z,4.60
2017-07-26T16:10:52.260Z,4.30
2017-07-26T16:13:20.814Z,4.70
2017-07-26T16:15:50.528Z,4.97
2017-07-26T16:18:19.195Z,5.10
2017-07-26T16:20:47.793Z,4.50
2017-07-26T16:23:17.283Z,4.30
2017-07-26T16:25:45.745Z,4.10
2017-07-26T16:28:14.985Z,4.50
2017-07-26T16:30:43.498Z,5.20
2017-07-26T16:33:13.270Z,5.00
2017-07-26T16:35:42.516Z,3.80
2017-07-26T16:38:11.633Z,4.10
2017-07-26T16:40:40.161Z,4.93
2017-07-26T16:43:08.987Z,5.00
2017-07-26T16:45:38.508Z,4.20
2017-07-26T16:48:07.217Z,4.40
2017-07-26T16:50:35.616Z,5.17
2017-07-26T16:53:04.273Z,4.40
2017-07-26T16:55:32.586Z,4.00
2017-07-26T16:58:01.666Z,4.87
2017-07-26T17:00:30.783Z,4.47
2017-07-26T17:02:59.135Z,5.40
2017-07-26T17:05:27.481Z,4.47
2017-07-26T17:07:57.194Z,3.90
2017-07-26T17:10:25.831Z,4.73
2017-07-26T17:12:54.238Z,4.00
2017-07-26T17:15:22.938Z,4.90
2017-07-26T17:17:51.373Z,4.30
2017-07-26T17:20:19.927Z,4.57
2017-07-26T17:22:49.283Z,4.87
2017-07-26T17:25:17.793Z,3.83
2017-07-26T17:27:46.323Z,7.53
2017-07-26T17:30:18.699Z,4.47
2017-07-26T17:32:47.543Z,4.60
2017-07-26T17:35:16.441Z,4.50
2017-07-26T17:37:45.812Z,4.27
2017-07-26T17:40:14.307Z,4.50
2017-07-26T17:42:42.997Z,4.57
2017-07-26T17:45:12.295Z,4.80
2017-07-26T17:47:41.805Z,4.40
2017-07-26T17:50:10.784Z,5.03
2017-07-26T17:52:40.855Z,4.20
2017-07-26T17:55:09.361Z,5.30
2017-07-26T17:57:39.143Z,5.17
2017-07-26T18:00:08.392Z,3.80
2017-07-26T18:02:37.883Z,4.90
2017-07-26T18:05:07.623Z,4.10
2017-07-26T18:07:37.804Z,5.70
2017-07-26T18:10:06.249Z,5.23
2017-07-26T18:12:34.621Z,4.80
2017-07-26T18:15:03.476Z,6.43
2017-07-26T18:17:31.856Z,5.10
2017-07-26T18:20:00.205Z,5.93
2017-07-26T18:22:29.704Z,4.53
2017-07-26T18:24:58.029Z,4.70
2017-07-26T18:27:27.133Z,4.80
2017-07-26T18:29:55.553Z,9.00
2017-07-26T18:32:23.901Z,6.07
2017-07-26T18:34:52.258Z,9.50
2017-07-26T18:37:21.208Z,7.10
2017-07-26T18:39:49.653Z,5.80
2017-07-26T18:42:18.047Z,5.90
2017-07-26T18:44:46.766Z,6.10
2017-07-26T18:47:15.361Z,5.80
2017-07-26T18:49:45.668Z,5.30
2017-07-26T18:52:14.300Z,5.53
2017-07-26T18:54:42.684Z,6.13
2017-07-26T18:57:11.823Z,5.30
2017-07-26T18:59:40.460Z,7.03
2017-07-26T19:02:08.949Z,5.93
2017-07-26T19:04:37.493Z,6.80
2017-07-26T19:07:08.703Z,6.10
2017-07-26T19:09:37.195Z,6.90
2017-07-26T19:12:05.663Z,6.70
2017-07-26T19:14:34.032Z,6.17
2017-07-26T19:17:02.382Z,6.40
2017-07-26T19:19:30.710Z,6.00
2017-07-26T19:22:00.367Z,9.10
2017-07-26T19:24:28.679Z,6.30
2017-07-26T19:26:56.998Z,6.03
2017-07-26T19:29:25.757Z,6.73
2017-07-26T19:31:54.072Z,6.40
2017-07-26T19:34:23.160Z,6.70
2017-07-26T19:36:51.975Z,6.73
2017-07-26T19:39:20.329Z,7.37
2017-07-26T19:41:48.740Z,7.23
2017-07-26T19:44:18.749Z,6.70
2017-07-26T19:46:47.890Z,7.07
2017-07-26T19:49:16.321Z,7.67
2017-07-26T19:51:45.627Z,7.50
2017-07-26T19:54:13.974Z,8.30
2017-07-26T19:56:42.326Z,6.63
2017-07-26T19:59:11.114Z,6.87
2017-07-26T20:01:39.672Z,7.10
2017-07-26T20:04:08.828Z,6.93
2017-07-26T20:06:39.345Z,6.50
2017-07-26T20:09:08.664Z,9.13
2017-07-26T20:11:37.062Z,7.30
2017-07-26T20:14:05.702Z,8.53
2017-07-26T20:16:34.041Z,7.60
2017-07-26T20:19:02.566Z,6.63
2017-07-26T20:21:31.119Z,7.70
2017-07-26T20:23:59.417Z,7.57
2017-07-26T20:26:27.761Z,7.93
2017-07-26T20:28:56.150Z,7.80
2017-07-26T20:31:25.241Z,7.67
2017-07-26T20:33:54.412Z,9.13
2017-07-26T20:36:23.851Z,9.03
2017-07-26T20:38:52.193Z,8.80
2017-07-26T20:41:21.498Z,8.10
2017-07-26T20:43:50.306Z,8.33
2017-07-26T20:46:18.786Z,7.67
2017-07-26T20:48:47.989Z,7.90
2017-07-26T20:51:16.808Z,8.40
2017-07-26T20:53:45.387Z,8.63
2017-07-26T20:56:14.626Z,8.73
2017-07-26T20:58:43.498Z,7.13
2017-07-26T21:01:12.160Z,8.93
2017-07-26T21:03:40.750Z,9.10
2017-07-26T21:06:09.582Z,7.87
2017-07-26T21:08:38.939Z,7.57
2017-07-26T21:11:07.623Z,7.63
2017-07-26T21:13:36.768Z,6.63
2017-07-26T21:16:05.089Z,7.50
2017-07-26T21:18:33.427Z,8.57
2017-07-26T21:21:02.265Z,9.50
2017-07-26T21:23:30.578Z,10.10
2017-07-26T21:25:59.656Z,9.10
2017-07-26T21:28:29.106Z,7.80
2017-07-26T21:30:57.453Z,8.27
2017-07-26T21:33:27.729Z,7.20
2017-07-26T21:35:56.841Z,7.40
2017-07-26T21:38:25.233Z,8.70
2017-07-26T21:40:53.585Z,7.80
2017-07-26T21:43:23.071Z,7.97
2017-07-26T21:45:51.394Z,8.40
2017-07-26T21:48:19.786Z,9.07
2017-07-26T21:50:48.681Z,8.70
2017-07-26T21:53:17.160Z,8.90
2017-07-26T21:55:47.154Z,8.10
2017-07-26T21:58:16.620Z,9.80
2017-07-26T22:00:45.067Z,8.20
2017-07-26T22:03:13.516Z,7.40
2017-07-26T22:05:42.369Z,8.20
2017-07-26T22:08:10.892Z,7.57
2017-07-26T22:10:39.532Z,8.20
2017-07-26T22:13:09.029Z,8.23
2017-07-26T22:15:37.741Z,8.83
2017-07-26T22:18:06.061Z,9.03
2017-07-26T22:20:35.203Z,8.40
2017-07-26T22:23:03.530Z,9.60
2017-07-26T22:25:32.549Z,9.07
2017-07-26T22:28:02.158Z,9.77
2017-07-26T22:30:31.232Z,8.50
2017-07-26T22:33:00.395Z,9.50
2017-07-26T22:35:29.536Z,9.67
2017-07-26T22:37:57.865Z,9.00
2017-07-26T22:40:26.956Z,9.80
2017-07-26T22:42:55.784Z,10.00
2017-07-26T22:45:24.934Z,11.30
2017-07-26T22:47:53.336Z,10.23
2017-07-26T22:50:23.842Z,11.17
2017-07-26T22:52:53.213Z,12.37
2017-07-26T22:55:21.552Z,10.23
2017-07-26T22:57:51.152Z,10.50
2017-07-26T23:00:19.531Z,9.80
2017-07-26T23:02:47.912Z,10.50
2017-07-26T23:05:16.729Z,10.73
2017-07-26T23:07:45.553Z,10.43
2017-07-26T23:10:13.931Z,11.27
2017-07-26T23:12:42.735Z,11.70
2017-07-26T23:15:11.303Z,11.10
2017-07-26T23:17:39.859Z,11.10
2017-07-26T23:20:08.917Z,10.60
2017-07-26T23:22:39.432Z,12.23
2017-07-26T23:25:10.181Z,10.33
2017-07-26T23:27:39.464Z,11.07
2017-07-26T23:30:08.107Z,11.63
2017-07-26T23:32:36.773Z,11.20
2017-07-26T23:35:05.254Z,11.67
2017-07-26T23:37:33.587Z,12.63
2017-07-26T23:40:02.337Z,10.23
2017-07-26T23:42:30.658Z,12.07
2017-07-26T23:44:59.036Z,11.00
2017-07-26T23:47:28.853Z,10.40
2017-07-26T23:49:59.139Z,11.17
2017-07-26T23:52:28.253Z,11.50
2017-07-26T23:54:57.128Z,11.67
2017-07-26T23:57:25.453Z,11.07
2017-07-26T23:59:54.684Z,9.80
